Terminal Aerodrome Forecast
Issued by NWS

Home | Current Version | Previous Version | Text Only | Print | Product List | Glossary On
Versions: 1 2 3 4 5 6 7 8 9 10 11 12 13
814
FTUS44 KLIX 210520
TAFGPT
TAF
KGPT 210520Z 2106/2206 08003KT P6SM SKC
     FM211000 VRB03KT 6SM BR BKN015 BKN200
     FM211900 16004KT P6SM VCTS SCT050CB SCT100
     FM220100 VRB05KT P6SM SCT200=

USA.gov is the U.S. government's official web portal to all federal, state and local government web resources and services.